sensor_id;sensor_type;location;lat;lon;timestamp;temperature;humidity
18177;DHT22;9213;50.858;3.964;2023-06-24T00:00:02;23.30;41.60
18177;DHT22;9213;50.858;3.964;2023-06-24T00:02:32;23.30;42.00
18177;DHT22;9213;50.858;3.964;2023-06-24T00:05:01;23.20;42.20
18177;DHT22;9213;50.858;3.964;2023-06-24T00:07:29;23.20;42.40
18177;DHT22;9213;50.858;3.964;2023-06-24T00:09:56;23.10;42.50
18177;DHT22;9213;50.858;3.964;2023-06-24T00:12:24;23.10;42.60
18177;DHT22;9213;50.858;3.964;2023-06-24T00:14:52;23.00;42.70
18177;DHT22;9213;50.858;3.964;2023-06-24T00:17:19;23.00;42.90
18177;DHT22;9213;50.858;3.964;2023-06-24T00:19:46;22.90;43.00
18177;DHT22;9213;50.858;3.964;2023-06-24T00:22:13;22.90;43.10
18177;DHT22;9213;50.858;3.964;2023-06-24T00:24:39;22.90;43.20
18177;DHT22;9213;50.858;3.964;2023-06-24T00:27:08;22.90;43.50
18177;DHT22;9213;50.858;3.964;2023-06-24T00:29:36;22.80;43.30
18177;DHT22;9213;50.858;3.964;2023-06-24T00:32:04;22.80;43.60
18177;DHT22;9213;50.858;3.964;2023-06-24T00:34:31;22.70;43.60
18177;DHT22;9213;50.858;3.964;2023-06-24T00:36:58;22.70;43.70
18177;DHT22;9213;50.858;3.964;2023-06-24T00:39:25;22.60;43.60
18177;DHT22;9213;50.858;3.964;2023-06-24T00:41:52;22.60;43.70
18177;DHT22;9213;50.858;3.964;2023-06-24T00:44:19;22.50;44.00
18177;DHT22;9213;50.858;3.964;2023-06-24T00:46:48;22.50;44.30
18177;DHT22;9213;50.858;3.964;2023-06-24T00:49:15;22.50;44.40
18177;DHT22;9213;50.858;3.964;2023-06-24T00:51:42;22.40;44.20
18177;DHT22;9213;50.858;3.964;2023-06-24T00:54:16;22.40;44.30
18177;DHT22;9213;50.858;3.964;2023-06-24T00:56:43;22.40;44.60
18177;DHT22;9213;50.858;3.964;2023-06-24T00:59:13;22.30;44.80
18177;DHT22;9213;50.858;3.964;2023-06-24T01:01:41;22.30;44.80
18177;DHT22;9213;50.858;3.964;2023-06-24T01:04:11;22.20;45.00
18177;DHT22;9213;50.858;3.964;2023-06-24T01:06:38;22.20;44.80
18177;DHT22;9213;50.858;3.964;2023-06-24T01:09:09;22.20;45.00
18177;DHT22;9213;50.858;3.964;2023-06-24T01:11:36;22.20;45.20
18177;DHT22;9213;50.858;3.964;2023-06-24T01:14:03;22.10;44.90
18177;DHT22;9213;50.858;3.964;2023-06-24T01:16:37;22.10;45.20
18177;DHT22;9213;50.858;3.964;2023-06-24T01:19:22;22.10;45.30
18177;DHT22;9213;50.858;3.964;2023-06-24T01:21:58;22.00;45.50
18177;DHT22;9213;50.858;3.964;2023-06-24T01:24:40;22.00;45.40
18177;DHT22;9213;50.858;3.964;2023-06-24T01:27:24;21.90;45.70
18177;DHT22;9213;50.858;3.964;2023-06-24T01:30:17;21.90;45.70
18177;DHT22;9213;50.858;3.964;2023-06-24T01:32:53;21.90;45.80
18177;DHT22;9213;50.858;3.964;2023-06-24T01:35:23;21.90;46.10
18177;DHT22;9213;50.858;3.964;2023-06-24T01:37:53;21.80;46.30
18177;DHT22;9213;50.858;3.964;2023-06-24T01:40:25;21.70;46.30
18177;DHT22;9213;50.858;3.964;2023-06-24T01:42:54;21.70;46.60
18177;DHT22;9213;50.858;3.964;2023-06-24T01:45:24;21.70;46.60
18177;DHT22;9213;50.858;3.964;2023-06-24T01:47:59;21.70;46.80
18177;DHT22;9213;50.858;3.964;2023-06-24T01:50:29;21.60;46.90
18177;DHT22;9213;50.858;3.964;2023-06-24T01:52:57;21.60;47.10
18177;DHT22;9213;50.858;3.964;2023-06-24T01:55:26;21.50;47.10
18177;DHT22;9213;50.858;3.964;2023-06-24T01:57:55;21.50;47.50
18177;DHT22;9213;50.858;3.964;2023-06-24T02:00:24;21.40;47.60
18177;DHT22;9213;50.858;3.964;2023-06-24T02:02:53;21.40;47.60
18177;DHT22;9213;50.858;3.964;2023-06-24T02:05:21;21.40;47.70
18177;DHT22;9213;50.858;3.964;2023-06-24T02:07:49;21.30;47.70
18177;DHT22;9213;50.858;3.964;2023-06-24T02:10:17;21.30;47.90
18177;DHT22;9213;50.858;3.964;2023-06-24T02:12:47;21.30;47.90
18177;DHT22;9213;50.858;3.964;2023-06-24T02:15:15;21.30;48.00
18177;DHT22;9213;50.858;3.964;2023-06-24T02:17:44;21.20;48.00
18177;DHT22;9213;50.858;3.964;2023-06-24T02:20:16;21.20;48.10
18177;DHT22;9213;50.858;3.964;2023-06-24T02:22:44;21.10;48.40
18177;DHT22;9213;50.858;3.964;2023-06-24T02:25:12;21.10;48.50
18177;DHT22;9213;50.858;3.964;2023-06-24T02:27:40;21.10;48.60
18177;DHT22;9213;50.858;3.964;2023-06-24T02:30:08;21.10;48.70
18177;DHT22;9213;50.858;3.964;2023-06-24T02:32:36;21.10;48.70
18177;DHT22;9213;50.858;3.964;2023-06-24T02:35:05;21.00;48.70
18177;DHT22;9213;50.858;3.964;2023-06-24T02:37:34;21.00;48.70
18177;DHT22;9213;50.858;3.964;2023-06-24T02:40:01;21.00;48.90
18177;DHT22;9213;50.858;3.964;2023-06-24T02:42:29;21.00;48.90
18177;DHT22;9213;50.858;3.964;2023-06-24T02:44:57;20.90;48.90
18177;DHT22;9213;50.858;3.964;2023-06-24T02:47:24;20.90;48.90
18177;DHT22;9213;50.858;3.964;2023-06-24T02:49:53;20.90;49.10
18177;DHT22;9213;50.858;3.964;2023-06-24T02:52:21;20.80;49.20
18177;DHT22;9213;50.858;3.964;2023-06-24T02:54:50;20.80;49.20
18177;DHT22;9213;50.858;3.964;2023-06-24T02:57:17;20.80;49.50
18177;DHT22;9213;50.858;3.964;2023-06-24T02:59:45;20.80;49.40
18177;DHT22;9213;50.858;3.964;2023-06-24T03:02:14;20.70;49.50
18177;DHT22;9213;50.858;3.964;2023-06-24T03:04:42;20.70;49.70
18177;DHT22;9213;50.858;3.964;2023-06-24T03:07:10;20.70;49.70
18177;DHT22;9213;50.858;3.964;2023-06-24T03:09:37;20.70;49.90
18177;DHT22;9213;50.858;3.964;2023-06-24T03:12:08;20.60;49.80
18177;DHT22;9213;50.858;3.964;2023-06-24T03:14:35;20.60;49.90
18177;DHT22;9213;50.858;3.964;2023-06-24T03:17:02;20.60;49.80
18177;DHT22;9213;50.858;3.964;2023-06-24T03:19:29;20.60;49.90
18177;DHT22;9213;50.858;3.964;2023-06-24T03:21:56;20.60;50.10
18177;DHT22;9213;50.858;3.964;2023-06-24T03:24:23;20.50;50.30
18177;DHT22;9213;50.858;3.964;2023-06-24T03:26:50;20.50;50.40
18177;DHT22;9213;50.858;3.964;2023-06-24T03:29:23;20.50;50.40
18177;DHT22;9213;50.858;3.964;2023-06-24T03:31:50;20.50;50.60
18177;DHT22;9213;50.858;3.964;2023-06-24T03:34:17;20.40;50.50
18177;DHT22;9213;50.858;3.964;2023-06-24T03:36:45;20.40;50.60
18177;DHT22;9213;50.858;3.964;2023-06-24T03:39:12;20.40;50.60
18177;DHT22;9213;50.858;3.964;2023-06-24T03:41:38;20.40;50.70
18177;DHT22;9213;50.858;3.964;2023-06-24T03:44:05;20.30;50.80
18177;DHT22;9213;50.858;3.964;2023-06-24T03:46:34;20.30;50.80
18177;DHT22;9213;50.858;3.964;2023-06-24T03:49:00;20.30;50.80
18177;DHT22;9213;50.858;3.964;2023-06-24T03:51:28;20.30;50.90
18177;DHT22;9213;50.858;3.964;2023-06-24T03:53:55;20.30;51.00
18177;DHT22;9213;50.858;3.964;2023-06-24T03:56:22;20.30;51.10
18177;DHT22;9213;50.858;3.964;2023-06-24T03:58:49;20.20;51.00
18177;DHT22;9213;50.858;3.964;2023-06-24T04:01:16;20.30;51.10
18177;DHT22;9213;50.858;3.964;2023-06-24T04:03:46;20.30;51.80
18177;DHT22;9213;50.858;3.964;2023-06-24T04:06:13;20.30;51.20
18177;DHT22;9213;50.858;3.964;2023-06-24T04:08:40;20.30;51.20
18177;DHT22;9213;50.858;3.964;2023-06-24T04:11:09;20.30;51.20
18177;DHT22;9213;50.858;3.964;2023-06-24T04:13:37;20.30;51.10
18177;DHT22;9213;50.858;3.964;2023-06-24T04:16:04;20.30;51.10
18177;DHT22;9213;50.858;3.964;2023-06-24T04:18:31;20.30;51.10
18177;DHT22;9213;50.858;3.964;2023-06-24T04:20:59;20.30;50.90
18177;DHT22;9213;50.858;3.964;2023-06-24T04:23:26;20.30;51.00
18177;DHT22;9213;50.858;3.964;2023-06-24T04:25:53;20.30;50.90
18177;DHT22;9213;50.858;3.964;2023-06-24T04:28:20;20.30;51.00
18177;DHT22;9213;50.858;3.964;2023-06-24T04:30:47;20.30;51.30
18177;DHT22;9213;50.858;3.964;2023-06-24T04:33:14;20.30;51.40
18177;DHT22;9213;50.858;3.964;2023-06-24T04:35:40;20.30;51.40
18177;DHT22;9213;50.858;3.964;2023-06-24T04:38:09;20.30;51.40
18177;DHT22;9213;50.858;3.964;2023-06-24T04:40:36;20.30;51.50
18177;DHT22;9213;50.858;3.964;2023-06-24T04:43:03;20.30;51.50
18177;DHT22;9213;50.858;3.964;2023-06-24T04:45:30;20.30;51.70
18177;DHT22;9213;50.858;3.964;2023-06-24T04:47:57;20.30;51.90
18177;DHT22;9213;50.858;3.964;2023-06-24T04:50:23;20.30;51.90
18177;DHT22;9213;50.858;3.964;2023-06-24T04:52:53;20.30;51.90
18177;DHT22;9213;50.858;3.964;2023-06-24T04:55:23;20.30;52.00
18177;DHT22;9213;50.858;3.964;2023-06-24T04:57:50;20.30;52.30
18177;DHT22;9213;50.858;3.964;2023-06-24T05:00:17;20.40;52.30
18177;DHT22;9213;50.858;3.964;2023-06-24T05:02:44;20.60;52.40
18177;DHT22;9213;50.858;3.964;2023-06-24T05:05:11;20.80;51.80
18177;DHT22;9213;50.858;3.964;2023-06-24T05:07:38;21.00;51.30
18177;DHT22;9213;50.858;3.964;2023-06-24T05:10:06;21.10;50.90
18177;DHT22;9213;50.858;3.964;2023-06-24T05:12:34;21.20;50.60
18177;DHT22;9213;50.858;3.964;2023-06-24T05:15:01;21.20;50.50
18177;DHT22;9213;50.858;3.964;2023-06-24T05:17:28;21.30;50.60
18177;DHT22;9213;50.858;3.964;2023-06-24T05:19:55;21.30;50.70
18177;DHT22;9213;50.858;3.964;2023-06-24T05:22:22;21.30;51.40
18177;DHT22;9213;50.858;3.964;2023-06-24T05:24:49;21.30;50.70
18177;DHT22;9213;50.858;3.964;2023-06-24T05:27:16;21.20;50.60
18177;DHT22;9213;50.858;3.964;2023-06-24T05:29:44;21.20;50.80
18177;DHT22;9213;50.858;3.964;2023-06-24T05:32:11;21.20;50.90
18177;DHT22;9213;50.858;3.964;2023-06-24T05:34:38;21.20;51.10
18177;DHT22;9213;50.858;3.964;2023-06-24T05:37:05;21.20;51.30
18177;DHT22;9213;50.858;3.964;2023-06-24T05:39:32;21.20;51.40
18177;DHT22;9213;50.858;3.964;2023-06-24T05:41:59;21.20;52.30
18177;DHT22;9213;50.858;3.964;2023-06-24T05:44:26;21.20;51.50
18177;DHT22;9213;50.858;3.964;2023-06-24T05:46:54;21.20;51.60
18177;DHT22;9213;50.858;3.964;2023-06-24T05:49:21;21.20;51.70
18177;DHT22;9213;50.858;3.964;2023-06-24T05:51:48;21.20;51.60
18177;DHT22;9213;50.858;3.964;2023-06-24T05:54:15;21.20;51.60
18177;DHT22;9213;50.858;3.964;2023-06-24T05:56:42;21.20;51.70
18177;DHT22;9213;50.858;3.964;2023-06-24T05:59:09;21.30;51.90
18177;DHT22;9213;50.858;3.964;2023-06-24T06:01:36;21.30;52.00
18177;DHT22;9213;50.858;3.964;2023-06-24T06:04:04;21.30;51.90
18177;DHT22;9213;50.858;3.964;2023-06-24T06:06:31;21.30;52.00
18177;DHT22;9213;50.858;3.964;2023-06-24T06:08:59;21.30;52.10
18177;DHT22;9213;50.858;3.964;2023-06-24T06:11:26;21.40;52.20
18177;DHT22;9213;50.858;3.964;2023-06-24T06:13:53;21.40;52.20
18177;DHT22;9213;50.858;3.964;2023-06-24T06:16:20;21.50;52.30
18177;DHT22;9213;50.858;3.964;2023-06-24T06:18:46;21.60;51.80
18177;DHT22;9213;50.858;3.964;2023-06-24T06:21:15;21.60;51.80
18177;DHT22;9213;50.858;3.964;2023-06-24T06:23:42;21.70;51.90
18177;DHT22;9213;50.858;3.964;2023-06-24T06:26:09;21.70;51.80
18177;DHT22;9213;50.858;3.964;2023-06-24T06:28:36;21.80;51.60
18177;DHT22;9213;50.858;3.964;2023-06-24T06:31:03;22.00;52.10
18177;DHT22;9213;50.858;3.964;2023-06-24T06:33:30;22.80;51.40
18177;DHT22;9213;50.858;3.964;2023-06-24T06:35:56;24.50;48.40
18177;DHT22;9213;50.858;3.964;2023-06-24T06:38:26;26.40;43.30
18177;DHT22;9213;50.858;3.964;2023-06-24T06:40:53;28.30;38.40
18177;DHT22;9213;50.858;3.964;2023-06-24T06:43:21;30.10;35.40
18177;DHT22;9213;50.858;3.964;2023-06-24T06:45:48;31.70;32.60
18177;DHT22;9213;50.858;3.964;2023-06-24T06:48:15;33.00;30.20
18177;DHT22;9213;50.858;3.964;2023-06-24T06:50:41;34.10;28.30
18177;DHT22;9213;50.858;3.964;2023-06-24T06:53:08;35.10;26.10
18177;DHT22;9213;50.858;3.964;2023-06-24T06:55:37;35.80;24.60
18177;DHT22;9213;50.858;3.964;2023-06-24T06:58:04;36.40;23.70
18177;DHT22;9213;50.858;3.964;2023-06-24T07:00:31;36.90;22.80
18177;DHT22;9213;50.858;3.964;2023-06-24T07:02:58;37.30;22.00
18177;DHT22;9213;50.858;3.964;2023-06-24T07:05:25;37.70;21.40
18177;DHT22;9213;50.858;3.964;2023-06-24T07:07:52;38.00;20.80
18177;DHT22;9213;50.858;3.964;2023-06-24T07:10:19;38.30;20.00
18177;DHT22;9213;50.858;3.964;2023-06-24T07:12:47;38.60;20.00
18177;DHT22;9213;50.858;3.964;2023-06-24T07:15:14;38.90;19.70
18177;DHT22;9213;50.858;3.964;2023-06-24T07:17:44;39.20;19.60
18177;DHT22;9213;50.858;3.964;2023-06-24T07:20:11;39.60;19.10
18177;DHT22;9213;50.858;3.964;2023-06-24T07:22:38;39.90;18.60
18177;DHT22;9213;50.858;3.964;2023-06-24T07:25:06;40.10;18.70
18177;DHT22;9213;50.858;3.964;2023-06-24T07:27:33;40.30;18.10
18177;DHT22;9213;50.858;3.964;2023-06-24T07:30:01;40.40;18.20
18177;DHT22;9213;50.858;3.964;2023-06-24T07:32:28;40.60;18.10
18177;DHT22;9213;50.858;3.964;2023-06-24T07:34:55;40.70;17.90
18177;DHT22;9213;50.858;3.964;2023-06-24T07:37:22;40.80;17.60
18177;DHT22;9213;50.858;3.964;2023-06-24T07:39:49;40.90;17.60
18177;DHT22;9213;50.858;3.964;2023-06-24T07:42:16;41.10;18.00
18177;DHT22;9213;50.858;3.964;2023-06-24T07:44:44;41.30;17.80
18177;DHT22;9213;50.858;3.964;2023-06-24T07:47:12;41.50;17.20
18177;DHT22;9213;50.858;3.964;2023-06-24T07:49:39;41.70;16.80
18177;DHT22;9213;50.858;3.964;2023-06-24T07:52:06;41.90;16.90
18177;DHT22;9213;50.858;3.964;2023-06-24T07:54:34;42.00;16.90
18177;DHT22;9213;50.858;3.964;2023-06-24T07:57:01;42.10;16.50
18177;DHT22;9213;50.858;3.964;2023-06-24T07:59:28;42.40;16.80
18177;DHT22;9213;50.858;3.964;2023-06-24T08:01:55;42.50;16.30
18177;DHT22;9213;50.858;3.964;2023-06-24T08:04:23;42.50;16.60
18177;DHT22;9213;50.858;3.964;2023-06-24T08:06:50;42.40;15.90
18177;DHT22;9213;50.858;3.964;2023-06-24T08:09:17;42.30;15.30
18177;DHT22;9213;50.858;3.964;2023-06-24T08:11:44;42.30;15.80
18177;DHT22;9213;50.858;3.964;2023-06-24T08:14:11;42.20;15.70
18177;DHT22;9213;50.858;3.964;2023-06-24T08:16:38;42.20;16.30
18177;DHT22;9213;50.858;3.964;2023-06-24T08:19:05;42.20;15.90
18177;DHT22;9213;50.858;3.964;2023-06-24T08:21:33;42.10;16.10
18177;DHT22;9213;50.858;3.964;2023-06-24T08:24:00;42.20;16.10
18177;DHT22;9213;50.858;3.964;2023-06-24T08:26:28;42.20;16.30
18177;DHT22;9213;50.858;3.964;2023-06-24T08:28:54;42.20;16.10
18177;DHT22;9213;50.858;3.964;2023-06-24T08:31:21;42.30;15.50
18177;DHT22;9213;50.858;3.964;2023-06-24T08:33:52;42.30;15.80
18177;DHT22;9213;50.858;3.964;2023-06-24T08:36:21;42.30;16.10
18177;DHT22;9213;50.858;3.964;2023-06-24T08:38:50;42.50;15.80
18177;DHT22;9213;50.858;3.964;2023-06-24T08:41:17;42.50;15.60
18177;DHT22;9213;50.858;3.964;2023-06-24T08:43:44;42.70;16.30
18177;DHT22;9213;50.858;3.964;2023-06-24T08:46:13;42.80;15.40
18177;DHT22;9213;50.858;3.964;2023-06-24T08:48:43;42.80;15.20
18177;DHT22;9213;50.858;3.964;2023-06-24T08:51:13;42.80;15.80
18177;DHT22;9213;50.858;3.964;2023-06-24T08:53:43;42.80;15.50
18177;DHT22;9213;50.858;3.964;2023-06-24T08:56:11;42.80;15.70
18177;DHT22;9213;50.858;3.964;2023-06-24T08:58:40;42.80;15.50
18177;DHT22;9213;50.858;3.964;2023-06-24T09:01:07;42.90;15.50
18177;DHT22;9213;50.858;3.964;2023-06-24T09:03:34;43.10;15.50
18177;DHT22;9213;50.858;3.964;2023-06-24T09:06:02;43.20;14.90
18177;DHT22;9213;50.858;3.964;2023-06-24T09:08:29;43.30;15.10
18177;DHT22;9213;50.858;3.964;2023-06-24T09:10:56;43.40;15.10
18177;DHT22;9213;50.858;3.964;2023-06-24T09:13:34;43.50;15.10
18177;DHT22;9213;50.858;3.964;2023-06-24T09:16:11;43.60;15.00
18177;DHT22;9213;50.858;3.964;2023-06-24T09:18:38;43.60;15.70
18177;DHT22;9213;50.858;3.964;2023-06-24T09:21:05;43.50;14.60
18177;DHT22;9213;50.858;3.964;2023-06-24T09:23:36;43.40;15.00
18177;DHT22;9213;50.858;3.964;2023-06-24T09:26:03;43.30;14.30
18177;DHT22;9213;50.858;3.964;2023-06-24T09:28:31;43.10;14.70
18177;DHT22;9213;50.858;3.964;2023-06-24T09:31:06;43.00;14.70
18177;DHT22;9213;50.858;3.964;2023-06-24T09:33:33;43.00;15.20
18177;DHT22;9213;50.858;3.964;2023-06-24T09:36:02;42.80;14.10
18177;DHT22;9213;50.858;3.964;2023-06-24T09:38:32;42.70;14.80
18177;DHT22;9213;50.858;3.964;2023-06-24T09:41:02;42.70;14.50
18177;DHT22;9213;50.858;3.964;2023-06-24T09:43:33;42.50;14.80
18177;DHT22;9213;50.858;3.964;2023-06-24T09:46:02;42.30;15.20
18177;DHT22;9213;50.858;3.964;2023-06-24T09:48:29;42.00;16.00
18177;DHT22;9213;50.858;3.964;2023-06-24T09:50:59;41.80;15.40
18177;DHT22;9213;50.858;3.964;2023-06-24T09:53:28;41.80;14.60
18177;DHT22;9213;50.858;3.964;2023-06-24T09:55:56;41.70;14.90
18177;DHT22;9213;50.858;3.964;2023-06-24T09:58:23;41.60;14.70
18177;DHT22;9213;50.858;3.964;2023-06-24T10:00:52;41.60;15.60
18177;DHT22;9213;50.858;3.964;2023-06-24T10:03:21;41.40;15.70
18177;DHT22;9213;50.858;3.964;2023-06-24T10:05:49;41.40;16.30
18177;DHT22;9213;50.858;3.964;2023-06-24T10:08:16;41.10;15.20
18177;DHT22;9213;50.858;3.964;2023-06-24T10:10:44;41.00;15.10
18177;DHT22;9213;50.858;3.964;2023-06-24T10:13:11;40.80;15.40
18177;DHT22;9213;50.858;3.964;2023-06-24T10:15:38;40.80;16.40
18177;DHT22;9213;50.858;3.964;2023-06-24T10:18:32;40.80;16.20
18177;DHT22;9213;50.858;3.964;2023-06-24T10:20:59;40.80;16.40
18177;DHT22;9213;50.858;3.964;2023-06-24T10:23:30;40.50;16.00
18177;DHT22;9213;50.858;3.964;2023-06-24T10:25:57;40.30;16.70
18177;DHT22;9213;50.858;3.964;2023-06-24T10:28:24;40.10;16.20
18177;DHT22;9213;50.858;3.964;2023-06-24T10:30:55;40.00;17.10
18177;DHT22;9213;50.858;3.964;2023-06-24T10:33:25;40.10;16.80
18177;DHT22;9213;50.858;3.964;2023-06-24T10:35:52;40.10;16.30
18177;DHT22;9213;50.858;3.964;2023-06-24T10:38:18;40.10;16.30
18177;DHT22;9213;50.858;3.964;2023-06-24T10:40:49;40.20;16.50
18177;DHT22;9213;50.858;3.964;2023-06-24T10:43:27;40.20;17.50
18177;DHT22;9213;50.858;3.964;2023-06-24T10:45:56;40.20;17.30
18177;DHT22;9213;50.858;3.964;2023-06-24T10:48:24;40.10;16.70
18177;DHT22;9213;50.858;3.964;2023-06-24T10:50:51;40.00;17.10
18177;DHT22;9213;50.858;3.964;2023-06-24T10:53:19;40.00;17.30
18177;DHT22;9213;50.858;3.964;2023-06-24T10:55:46;40.00;17.30
18177;DHT22;9213;50.858;3.964;2023-06-24T10:58:13;39.90;16.60
18177;DHT22;9213;50.858;3.964;2023-06-24T11:00:41;39.80;16.20
18177;DHT22;9213;50.858;3.964;2023-06-24T11:03:10;39.60;16.00
18177;DHT22;9213;50.858;3.964;2023-06-24T11:05:40;39.50;16.80
18177;DHT22;9213;50.858;3.964;2023-06-24T11:08:07;39.40;16.50
18177;DHT22;9213;50.858;3.964;2023-06-24T11:10:42;39.30;17.90
18177;DHT22;9213;50.858;3.964;2023-06-24T11:13:10;39.30;17.10
18177;DHT22;9213;50.858;3.964;2023-06-24T11:15:38;39.20;17.20
18177;DHT22;9213;50.858;3.964;2023-06-24T11:18:08;39.20;17.70
18177;DHT22;9213;50.858;3.964;2023-06-24T11:20:36;39.10;18.80
18177;DHT22;9213;50.858;3.964;2023-06-24T11:23:08;39.10;17.20
18177;DHT22;9213;50.858;3.964;2023-06-24T11:25:39;39.10;16.90
18177;DHT22;9213;50.858;3.964;2023-06-24T11:28:13;39.00;17.00
18177;DHT22;9213;50.858;3.964;2023-06-24T11:30:40;39.00;16.80
18177;DHT22;9213;50.858;3.964;2023-06-24T11:33:07;39.00;17.10
18177;DHT22;9213;50.858;3.964;2023-06-24T11:35:34;39.00;17.40
18177;DHT22;9213;50.858;3.964;2023-06-24T11:38:03;39.00;17.00
18177;DHT22;9213;50.858;3.964;2023-06-24T11:40:33;39.00;16.40
18177;DHT22;9213;50.858;3.964;2023-06-24T11:43:01;39.00;17.00
18177;DHT22;9213;50.858;3.964;2023-06-24T11:45:28;39.00;17.30
18177;DHT22;9213;50.858;3.964;2023-06-24T11:48:02;39.00;17.30
18177;DHT22;9213;50.858;3.964;2023-06-24T11:50:31;38.90;17.30
18177;DHT22;9213;50.858;3.964;2023-06-24T11:52:58;39.00;17.00
18177;DHT22;9213;50.858;3.964;2023-06-24T11:55:26;38.90;17.10
18177;DHT22;9213;50.858;3.964;2023-06-24T11:57:56;39.00;16.80
18177;DHT22;9213;50.858;3.964;2023-06-24T12:00:24;38.90;16.90
18177;DHT22;9213;50.858;3.964;2023-06-24T12:02:53;39.00;16.90
18177;DHT22;9213;50.858;3.964;2023-06-24T12:05:25;38.90;16.90
18177;DHT22;9213;50.858;3.964;2023-06-24T12:07:56;39.00;17.30
18177;DHT22;9213;50.858;3.964;2023-06-24T12:10:23;38.90;17.00
18177;DHT22;9213;50.858;3.964;2023-06-24T12:12:50;38.90;17.70
18177;DHT22;9213;50.858;3.964;2023-06-24T12:15:19;38.90;17.60
18177;DHT22;9213;50.858;3.964;2023-06-24T12:17:46;38.90;16.60
18177;DHT22;9213;50.858;3.964;2023-06-24T12:20:13;38.90;17.10
18177;DHT22;9213;50.858;3.964;2023-06-24T12:22:41;38.90;17.00
18177;DHT22;9213;50.858;3.964;2023-06-24T12:25:09;38.90;17.20
18177;DHT22;9213;50.858;3.964;2023-06-24T12:27:36;38.80;18.00
18177;DHT22;9213;50.858;3.964;2023-06-24T12:30:03;38.80;17.80
18177;DHT22;9213;50.858;3.964;2023-06-24T12:32:32;38.80;18.00
18177;DHT22;9213;50.858;3.964;2023-06-24T12:34:59;38.80;17.30
18177;DHT22;9213;50.858;3.964;2023-06-24T12:37:29;38.80;17.30
18177;DHT22;9213;50.858;3.964;2023-06-24T12:39:56;38.80;17.80
18177;DHT22;9213;50.858;3.964;2023-06-24T12:42:23;38.70;18.10
18177;DHT22;9213;50.858;3.964;2023-06-24T12:44:50;38.70;18.30
18177;DHT22;9213;50.858;3.964;2023-06-24T12:47:17;38.70;17.90
18177;DHT22;9213;50.858;3.964;2023-06-24T12:49:46;38.80;18.30
18177;DHT22;9213;50.858;3.964;2023-06-24T12:52:13;38.90;17.80
18177;DHT22;9213;50.858;3.964;2023-06-24T12:54:40;38.90;16.50
18177;DHT22;9213;50.858;3.964;2023-06-24T12:57:07;38.90;16.60
18177;DHT22;9213;50.858;3.964;2023-06-24T12:59:34;38.90;16.60
18177;DHT22;9213;50.858;3.964;2023-06-24T13:02:01;38.90;16.80
18177;DHT22;9213;50.858;3.964;2023-06-24T13:04:29;38.90;17.20
18177;DHT22;9213;50.858;3.964;2023-06-24T13:06:57;38.90;16.90
18177;DHT22;9213;50.858;3.964;2023-06-24T13:09:24;38.90;17.00
18177;DHT22;9213;50.858;3.964;2023-06-24T13:11:51;39.00;17.30
18177;DHT22;9213;50.858;3.964;2023-06-24T13:14:18;39.00;17.30
18177;DHT22;9213;50.858;3.964;2023-06-24T13:16:45;39.10;17.40
18177;DHT22;9213;50.858;3.964;2023-06-24T13:19:12;39.00;16.90
18177;DHT22;9213;50.858;3.964;2023-06-24T13:21:39;39.00;16.50
18177;DHT22;9213;50.858;3.964;2023-06-24T13:24:08;38.90;16.40
18177;DHT22;9213;50.858;3.964;2023-06-24T13:26:35;38.90;17.70
18177;DHT22;9213;50.858;3.964;2023-06-24T13:29:02;38.80;17.10
18177;DHT22;9213;50.858;3.964;2023-06-24T13:31:29;38.80;17.60
18177;DHT22;9213;50.858;3.964;2023-06-24T13:33:56;38.80;18.10
18177;DHT22;9213;50.858;3.964;2023-06-24T13:36:30;38.80;18.20
18177;DHT22;9213;50.858;3.964;2023-06-24T13:38:57;38.90;17.90
18177;DHT22;9213;50.858;3.964;2023-06-24T13:41:26;38.80;18.40
18177;DHT22;9213;50.858;3.964;2023-06-24T13:43:55;38.80;18.00
18177;DHT22;9213;50.858;3.964;2023-06-24T13:46:22;38.80;18.00
18177;DHT22;9213;50.858;3.964;2023-06-24T13:48:49;38.80;18.60
18177;DHT22;9213;50.858;3.964;2023-06-24T13:51:17;38.80;18.20
18177;DHT22;9213;50.858;3.964;2023-06-24T13:53:44;38.70;18.10
18177;DHT22;9213;50.858;3.964;2023-06-24T13:56:11;38.70;17.30
18177;DHT22;9213;50.858;3.964;2023-06-24T13:58:39;38.70;18.10
18177;DHT22;9213;50.858;3.964;2023-06-24T14:01:06;38.50;17.90
18177;DHT22;9213;50.858;3.964;2023-06-24T14:03:33;38.50;18.10
18177;DHT22;9213;50.858;3.964;2023-06-24T14:06:00;38.50;18.60
18177;DHT22;9213;50.858;3.964;2023-06-24T14:08:28;38.40;18.60
18177;DHT22;9213;50.858;3.964;2023-06-24T14:10:55;38.30;17.90
18177;DHT22;9213;50.858;3.964;2023-06-24T14:13:22;38.30;18.60
18177;DHT22;9213;50.858;3.964;2023-06-24T14:15:50;38.20;18.70
18177;DHT22;9213;50.858;3.964;2023-06-24T14:18:17;38.00;18.40
18177;DHT22;9213;50.858;3.964;2023-06-24T14:20:44;38.00;19.40
18177;DHT22;9213;50.858;3.964;2023-06-24T14:23:11;37.90;18.30
18177;DHT22;9213;50.858;3.964;2023-06-24T14:25:38;37.80;18.90
18177;DHT22;9213;50.858;3.964;2023-06-24T14:28:06;37.80;18.40
18177;DHT22;9213;50.858;3.964;2023-06-24T14:30:33;37.60;18.60
18177;DHT22;9213;50.858;3.964;2023-06-24T14:33:02;37.50;18.60
18177;DHT22;9213;50.858;3.964;2023-06-24T14:35:28;37.50;18.80
18177;DHT22;9213;50.858;3.964;2023-06-24T14:37:55;37.40;18.50
18177;DHT22;9213;50.858;3.964;2023-06-24T14:40:22;37.40;18.40
18177;DHT22;9213;50.858;3.964;2023-06-24T14:42:49;37.20;18.70
18177;DHT22;9213;50.858;3.964;2023-06-24T14:45:16;37.20;18.60
18177;DHT22;9213;50.858;3.964;2023-06-24T14:47:43;37.10;19.40
18177;DHT22;9213;50.858;3.964;2023-06-24T14:50:12;37.10;18.80
18177;DHT22;9213;50.858;3.964;2023-06-24T14:52:38;37.00;18.70
18177;DHT22;9213;50.858;3.964;2023-06-24T14:55:06;36.90;19.40
18177;DHT22;9213;50.858;3.964;2023-06-24T14:57:34;36.80;19.00
18177;DHT22;9213;50.858;3.964;2023-06-24T15:00:01;36.70;19.10
18177;DHT22;9213;50.858;3.964;2023-06-24T15:02:28;36.70;19.70
18177;DHT22;9213;50.858;3.964;2023-06-24T15:04:55;36.60;19.50
18177;DHT22;9213;50.858;3.964;2023-06-24T15:07:23;36.60;18.90
18177;DHT22;9213;50.858;3.964;2023-06-24T15:09:50;36.50;18.50
18177;DHT22;9213;50.858;3.964;2023-06-24T15:12:17;36.50;19.20
18177;DHT22;9213;50.858;3.964;2023-06-24T15:14:44;36.50;19.50
18177;DHT22;9213;50.858;3.964;2023-06-24T15:17:13;36.40;19.20
18177;DHT22;9213;50.858;3.964;2023-06-24T15:19:40;36.30;19.40
18177;DHT22;9213;50.858;3.964;2023-06-24T15:22:07;36.20;19.60
18177;DHT22;9213;50.858;3.964;2023-06-24T15:24:37;36.20;19.70
18177;DHT22;9213;50.858;3.964;2023-06-24T15:27:04;36.10;19.30
18177;DHT22;9213;50.858;3.964;2023-06-24T15:29:31;36.00;20.00
18177;DHT22;9213;50.858;3.964;2023-06-24T15:31:58;36.00;19.60
18177;DHT22;9213;50.858;3.964;2023-06-24T15:34:25;35.80;19.40
18177;DHT22;9213;50.858;3.964;2023-06-24T15:36:51;35.80;19.40
18177;DHT22;9213;50.858;3.964;2023-06-24T15:39:18;35.70;19.60
18177;DHT22;9213;50.858;3.964;2023-06-24T15:41:47;35.60;20.10
18177;DHT22;9213;50.858;3.964;2023-06-24T15:44:15;35.60;20.00
18177;DHT22;9213;50.858;3.964;2023-06-24T15:46:42;35.60;19.60
18177;DHT22;9213;50.858;3.964;2023-06-24T15:49:10;35.50;19.80